Lovendegem, Belgium
Current Conditions -  °F | °C
As of 9:25 AM on Friday 19 Dec 2014 (Local Time) from EHFS Reporting Station
Drizzle Drizzle  
Wind Chill: 52°   Ceiling: 900
Heat Index: 52°   Visibility: 4mi
Dew Point: 50°   Wind: 35mph
Humidity: 94%   Direction: 240°WSW
Pressure: 29.77"   Gusts: NA
Location:  51.1°N, 3.61°E
Report Text: EHFS 190825Z AUTO 24030KT 6000 DZ SCT008/// BKN009/// OVC011///11/10 Q1008
Loading
Personal Weather Stations






























Interactive Weather Map New forecast layout! Learn more

10-Day Weather Forecast

Advertisements
Track Severe Weather on mobile